Time;durP1;ratioP1;P1;durP2;ratioP2;P2;SDS_P1;SDS_P2;PMS_P1;PMS_P2;Temp;Humidity;BMP_temperature;BMP_pressure;BME280_temperature;BME280_humidity;BME280_pressure;Samples;Min_cycle;Max_cycle;Signal;HPM_P1;HPM_P2
2022/09/11 00:00:42;;;;;;;24.67;18.77;;;14.00;99.90;;;;;;5052600;28;20060;-65
2022/09/11 00:03:08;;;;;;;21.98;15.52;;;13.90;99.90;;;;;;5051475;28;20049;-65
2022/09/11 00:05:42;;;;;;;19.33;14.52;;;14.00;99.90;;;;;;5054576;28;20226;-64
2022/09/11 00:08:10;;;;;;;20.65;14.80;;;13.80;99.90;;;;;;5051818;28;20055;-64
2022/09/11 00:10:38;;;;;;;21.00;15.70;;;13.80;99.90;;;;;;5036325;28;20037;-64
2022/09/11 00:13:06;;;;;;;21.48;15.70;;;13.80;99.90;;;;;;5052919;28;20049;-64
2022/09/11 00:15:36;;;;;;;21.13;16.10;;;14.00;99.90;;;;;;5053995;28;20036;-64
2022/09/11 00:18:03;;;;;;;21.95;17.15;;;14.00;99.90;;;;;;5052422;28;20068;-64
2022/09/11 00:20:29;;;;;;;22.95;17.58;;;14.00;99.90;;;;;;5046686;28;20128;-64
2022/09/11 00:22:55;;;;;;;23.80;17.42;;;13.90;99.90;;;;;;5053802;28;20064;-64
2022/09/11 00:25:20;;;;;;;20.50;16.23;;;14.00;99.90;;;;;;5052812;28;20513;-64
2022/09/11 00:27:47;;;;;;;21.42;17.15;;;13.90;99.90;;;;;;5051192;28;20048;-64
2022/09/11 00:30:13;;;;;;;23.10;16.83;;;14.00;99.90;;;;;;5049255;28;20095;-64
2022/09/11 00:32:38;;;;;;;24.27;18.00;;;14.00;99.90;;;;;;5051272;28;20045;-64
2022/09/11 00:35:04;;;;;;;19.17;15.70;;;14.00;99.90;;;;;;5053750;28;20043;-65
2022/09/11 00:37:30;;;;;;;18.50;14.40;;;13.80;99.90;;;;;;5053851;28;20068;-64
2022/09/11 00:39:55;;;;;;;15.98;13.38;;;14.00;99.90;;;;;;5049907;28;20096;-64
2022/09/11 00:42:21;;;;;;;13.90;12.40;;;13.90;99.90;;;;;;5053351;28;20041;-65
2022/09/11 00:44:46;;;;;;;13.27;11.88;;;13.80;99.90;;;;;;5047248;28;20040;-64
2022/09/11 00:47:16;;;;;;;19.20;11.18;;;13.90;99.90;;;;;;5050252;28;20103;-65
2022/09/11 00:49:47;;;;;;;11.45;9.35;;;13.80;99.90;;;;;;5050568;28;20044;-64
2022/09/11 00:52:15;;;;;;;17.38;10.10;;;13.80;99.90;;;;;;5049854;28;20393;-65
2022/09/11 00:54:45;;;;;;;22.73;11.45;;;13.70;99.90;;;;;;5051976;28;20048;-65
2022/09/11 00:57:11;;;;;;;12.57;10.75;;;13.80;99.90;;;;;;5053600;28;20098;-65
2022/09/11 00:59:40;;;;;;;15.40;11.55;;;13.70;99.90;;;;;;5052790;28;20495;-63
2022/09/11 01:02:12;;;;;;;19.77;14.70;;;13.50;99.90;;;;;;5050403;28;20647;-64
2022/09/11 01:04:38;;;;;;;21.65;15.27;;;13.50;99.90;;;;;;5050534;28;20029;-63
2022/09/11 01:07:04;;;;;;;31.30;17.25;;;13.50;99.90;;;;;;5060129;28;20110;-65
2022/09/11 01:09:31;;;;;;;25.83;15.82;;;13.50;99.90;;;;;;5046467;28;20498;-64
2022/09/11 01:12:09;;;;;;;19.52;16.13;;;13.50;99.90;;;;;;5049066;28;20080;-65
2022/09/11 01:14:51;;;;;;;19.27;13.52;;;13.50;99.90;;;;;;5051706;28;20134;-65
2022/09/11 01:17:25;;;;;;;17.00;13.38;;;13.50;99.90;;;;;;5053290;28;20467;-64
2022/09/11 01:20:15;;;;;;;21.38;15.07;;;13.70;99.90;;;;;;5051829;28;20037;-65
2022/09/11 01:23:14;;;;;;;54.83;15.77;;;13.60;99.90;;;;;;5049977;28;20041;-65
2022/09/11 01:26:13;;;;;;;28.98;14.57;;;13.60;99.90;;;;;;5048214;28;20128;-64
2022/09/11 01:29:06;;;;;;;52.15;16.60;;;13.60;99.90;;;;;;5050500;28;20501;-65
2022/09/11 01:31:44;;;;;;;48.25;16.83;;;13.50;99.90;;;;;;5052253;28;20040;-64
2022/09/11 01:34:26;;;;;;;18.90;15.27;;;13.60;99.90;;;;;;5052901;28;20123;-64
2022/09/11 01:37:02;;;;;;;21.25;15.48;;;13.60;99.90;;;;;;5045976;28;20051;-65
2022/09/11 01:39:37;;;;;;;25.20;16.55;;;13.60;99.90;;;;;;5044702;28;20044;-64
2022/09/11 01:42:09;;;;;;;33.78;15.82;;;13.40;99.90;;;;;;5052180;28;20372;-64
2022/09/11 01:44:39;;;;;;;24.25;16.65;;;13.50;99.90;;;;;;5052737;28;20028;-64
2022/09/11 01:47:09;;;;;;;23.67;17.02;;;13.60;99.90;;;;;;5051105;28;20041;-65
2022/09/11 01:49:40;;;;;;;38.05;16.70;;;13.60;99.90;;;;;;5052342;28;20437;-64
2022/09/11 01:52:11;;;;;;;19.77;15.07;;;13.40;99.90;;;;;;5049747;28;20040;-66
2022/09/11 01:54:42;;;;;;;18.50;15.02;;;13.70;99.90;;;;;;5051337;28;20047;-64
2022/09/11 01:57:15;;;;;;;18.70;13.45;;;13.50;99.90;;;;;;5051139;28;20491;-64
2022/09/11 01:59:45;;;;;;;36.33;14.80;;;13.70;99.90;;;;;;5063237;28;20080;-64
2022/09/11 02:02:16;;;;;;;16.13;14.32;;;13.50;99.90;;;;;;5047414;28;20052;-64
2022/09/11 02:04:55;;;;;;;26.17;14.45;;;13.70;99.90;;;;;;5052164;28;20044;-64
2022/09/11 02:07:57;;;;;;;15.02;13.00;;;13.60;99.90;;;;;;5050966;28;20427;-65
2022/09/11 02:10:29;;;;;;;16.40;12.93;;;13.60;99.90;;;;;;5045553;28;20052;-65
2022/09/11 02:13:11;;;;;;;15.07;12.52;;;13.50;99.90;;;;;;5049703;28;20121;-65
2022/09/11 02:15:52;;;;;;;23.77;12.60;;;13.50;99.90;;;;;;5045493;28;20045;-64
2022/09/11 02:18:24;;;;;;;20.13;12.57;;;13.50;99.90;;;;;;5052183;28;20444;-64
2022/09/11 02:20:51;;;;;;;14.02;12.02;;;13.30;99.90;;;;;;5049413;28;20041;-65
2022/09/11 02:23:17;;;;;;;18.00;11.70;;;13.40;99.90;;;;;;5050825;28;20037;-65
2022/09/11 02:25:42;;;;;;;14.02;12.15;;;13.30;99.90;;;;;;5050626;28;20142;-64
2022/09/11 02:28:09;;;;;;;20.55;11.95;;;13.30;99.90;;;;;;5052153;28;20094;-64
2022/09/11 02:30:37;;;;;;;18.85;12.32;;;13.10;99.90;;;;;;5046602;28;20116;-64
2022/09/11 02:33:02;;;;;;;35.47;13.65;;;13.30;99.90;;;;;;5048436;28;20132;-65
2022/09/11 02:35:39;;;;;;;20.38;11.85;;;12.90;99.90;;;;;;5051945;28;20124;-65
2022/09/11 02:38:19;;;;;;;23.10;13.27;;;12.90;99.90;;;;;;5051874;28;20384;-65
2022/09/11 02:41:13;;;;;;;21.13;12.88;;;13.00;99.90;;;;;;5050598;28;20084;-65
2022/09/11 02:44:12;;;;;;;22.80;14.73;;;12.90;99.90;;;;;;5052467;28;20518;-64
2022/09/11 02:46:58;;;;;;;18.83;13.43;;;13.10;99.90;;;;;;5054488;28;20037;-65
2022/09/11 02:49:52;;;;;;;15.77;13.02;;;13.00;99.90;;;;;;5053418;28;20037;-64
2022/09/11 02:52:56;;;;;;;17.95;13.85;;;13.00;99.90;;;;;;5054337;28;20044;-64
2022/09/11 02:55:37;;;;;;;26.90;12.88;;;13.00;99.90;;;;;;5054910;28;20037;-64
2022/09/11 02:58:11;;;;;;;24.08;13.40;;;12.90;99.90;;;;;;5065137;28;20117;-64
2022/09/11 03:00:38;;;;;;;18.70;12.18;;;13.10;99.90;;;;;;5055226;28;20132;-65
2022/09/11 03:03:04;;;;;;;13.35;11.95;;;12.90;99.90;;;;;;5052473;28;20531;-64
2022/09/11 03:05:30;;;;;;;14.25;11.85;;;12.90;99.90;;;;;;5055796;28;20118;-64
2022/09/11 03:07:55;;;;;;;19.92;12.00;;;13.10;99.90;;;;;;5056157;28;20396;-64
2022/09/11 03:10:21;;;;;;;18.77;11.38;;;13.00;99.90;;;;;;5054200;28;20041;-64
2022/09/11 03:12:46;;;;;;;16.25;11.25;;;13.10;99.90;;;;;;5055285;28;20076;-64
2022/09/11 03:15:12;;;;;;;14.63;10.68;;;12.80;99.90;;;;;;5054979;28;20092;-64
2022/09/11 03:17:39;;;;;;;16.67;12.57;;;13.10;99.90;;;;;;5053842;28;20045;-64
2022/09/11 03:20:05;;;;;;;14.63;11.43;;;12.80;99.90;;;;;;5051064;28;20541;-64
2022/09/11 03:22:31;;;;;;;12.27;11.07;;;12.80;99.90;;;;;;5053425;28;20044;-64
2022/09/11 03:24:56;;;;;;;21.05;12.20;;;12.90;99.90;;;;;;5055235;28;20398;-64
2022/09/11 03:27:22;;;;;;;16.50;12.18;;;12.90;99.90;;;;;;5052616;28;20045;-64
2022/09/11 03:29:48;;;;;;;19.27;12.98;;;12.90;99.90;;;;;;5055291;28;20545;-64
2022/09/11 03:32:15;;;;;;;14.05;11.80;;;12.90;99.90;;;;;;5051168;28;20045;-64
2022/09/11 03:34:40;;;;;;;12.95;11.55;;;12.80;99.90;;;;;;5054855;28;20505;-64
2022/09/11 03:37:06;;;;;;;11.85;10.65;;;12.90;99.90;;;;;;5054863;28;20029;-65
2022/09/11 03:39:31;;;;;;;15.68;11.55;;;12.80;99.90;;;;;;5051994;28;20146;-65
2022/09/11 03:41:57;;;;;;;17.73;11.13;;;12.80;99.90;;;;;;5053472;28;20037;-64
2022/09/11 03:44:22;;;;;;;11.82;10.63;;;12.60;99.90;;;;;;5054923;28;20132;-65
2022/09/11 03:46:48;;;;;;;20.40;11.02;;;12.70;99.90;;;;;;5050444;28;20041;-64
2022/09/11 03:49:14;;;;;;;16.70;10.15;;;12.50;99.90;;;;;;5054790;28;20387;-64
2022/09/11 03:51:40;;;;;;;32.30;10.98;;;12.60;99.90;;;;;;5050867;28;20041;-64
2022/09/11 03:54:06;;;;;;;14.55;10.15;;;12.60;99.90;;;;;;5053630;28;20045;-64
2022/09/11 03:56:32;;;;;;;17.08;10.82;;;12.50;99.90;;;;;;5052572;28;20040;-64
2022/09/11 03:59:01;;;;;;;16.75;10.27;;;12.40;99.90;;;;;;5053449;28;20151;-64
2022/09/11 04:01:28;;;;;;;12.07;10.80;;;12.50;99.90;;;;;;5050565;28;20083;-64
2022/09/11 04:03:53;;;;;;;12.20;9.60;;;12.20;99.90;;;;;;5054177;28;20083;-64
2022/09/11 04:06:19;;;;;;;11.00;9.45;;;12.40;99.90;;;;;;5051031;28;20076;-64
2022/09/11 04:08:45;;;;;;;10.05;9.05;;;12.40;99.90;;;;;;5053280;28;20069;-64
2022/09/11 04:11:11;;;;;;;13.55;10.25;;;12.30;99.90;;;;;;5054302;28;20040;-65
2022/09/11 04:13:38;;;;;;;11.23;10.13;;;12.40;99.90;;;;;;5054009;28;20037;-64
2022/09/11 04:16:06;;;;;;;11.15;9.57;;;12.50;99.90;;;;;;5036066;28;20037;-64
2022/09/11 04:18:35;;;;;;;10.57;9.57;;;12.60;99.90;;;;;;5051654;28;20040;-64
2022/09/11 04:21:06;;;;;;;9.63;8.65;;;12.40;99.90;;;;;;5053865;28;20037;-64
2022/09/11 04:23:32;;;;;;;10.48;9.38;;;12.60;99.90;;;;;;5050338;28;20079;-64
2022/09/11 04:25:59;;;;;;;10.23;8.95;;;12.40;99.90;;;;;;5052595;28;20040;-65
2022/09/11 04:28:27;;;;;;;11.57;10.40;;;12.50;99.90;;;;;;5053474;28;20072;-65
2022/09/11 04:30:52;;;;;;;10.95;9.85;;;;;;;;;;5048954;28;20037;-64
2022/09/11 04:33:18;;;;;;;10.70;9.60;;;12.50;99.90;;;;;;5051233;28;20041;-64
2022/09/11 04:35:43;;;;;;;9.40;8.40;;;12.50;99.90;;;;;;5051715;28;20186;-64
2022/09/11 04:38:09;;;;;;;11.40;8.88;;;12.50;99.90;;;;;;5053656;28;20141;-64
2022/09/11 04:40:35;;;;;;;10.80;9.70;;;12.40;99.90;;;;;;5049581;28;20521;-64
2022/09/11 04:43:01;;;;;;;14.85;9.93;;;12.50;99.90;;;;;;5052141;28;20398;-65
2022/09/11 04:45:32;;;;;;;12.07;9.50;;;12.60;99.90;;;;;;5053517;28;20234;-64
2022/09/11 04:47:59;;;;;;;10.38;9.38;;;12.60;99.90;;;;;;5052451;28;20086;-65
2022/09/11 04:50:25;;;;;;;12.60;9.35;;;12.60;99.90;;;;;;5052024;28;20032;-65
2022/09/11 04:52:50;;;;;;;15.63;9.75;;;12.60;99.90;;;;;;5050916;28;20491;-64
2022/09/11 04:55:16;;;;;;;13.40;9.65;;;12.60;99.90;;;;;;5052014;28;20041;-64
2022/09/11 04:57:41;;;;;;;36.30;10.43;;;12.50;99.90;;;;;;5048037;28;20439;-64
2022/09/11 05:00:09;;;;;;;16.23;8.48;;;12.50;99.90;;;;;;5050923;28;20060;-64
2022/09/11 05:02:35;;;;;;;72.43;10.57;;;12.40;99.90;;;;;;5047521;28;20415;-64
2022/09/11 05:05:01;;;;;;;10.05;7.53;;;12.30;99.90;;;;;;5051508;28;20028;-64
2022/09/11 05:07:26;;;;;;;9.05;7.97;;;12.30;99.90;;;;;;5052930;28;20052;-64
2022/09/11 05:09:53;;;;;;;42.70;9.38;;;12.20;99.90;;;;;;5050048;28;20052;-64
2022/09/11 05:12:19;;;;;;;9.10;8.05;;;12.10;99.90;;;;;;5047143;28;20506;-64
2022/09/11 05:14:45;;;;;;;10.07;7.82;;;12.20;99.90;;;;;;5032339;28;20379;-64
2022/09/11 05:17:12;;;;;;;10.75;8.32;;;12.30;99.90;;;;;;5051477;28;20058;-64
2022/09/11 05:19:38;;;;;;;9.25;8.25;;;12.30;99.90;;;;;;5068588;28;20045;-64
2022/09/11 05:22:05;;;;;;;10.00;8.25;;;12.20;99.90;;;;;;5029469;28;20118;-65
2022/09/11 05:24:31;;;;;;;9.18;8.27;;;;;;;;;;5050166;28;20029;-64
2022/09/11 05:26:58;;;;;;;9.27;8.38;;;12.30;99.90;;;;;;5051718;28;20055;-65
2022/09/11 05:29:27;;;;;;;9.02;8.13;;;12.20;99.90;;;;;;5052891;28;20041;-65
2022/09/11 05:31:54;;;;;;;11.60;9.52;;;12.40;99.90;;;;;;5051455;28;20047;-64
2022/09/11 05:34:21;;;;;;;10.00;9.00;;;12.40;99.90;;;;;;5052674;28;20522;-65
2022/09/11 05:36:46;;;;;;;10.70;9.65;;;12.30;99.90;;;;;;5051270;28;20040;-65
2022/09/11 05:39:12;;;;;;;10.77;9.25;;;12.30;99.90;;;;;;5052592;28;20102;-64
2022/09/11 05:41:38;;;;;;;11.52;10.02;;;12.20;99.90;;;;;;5045489;28;20132;-64
2022/09/11 05:44:04;;;;;;;11.25;9.18;;;;;;;;;;5052663;28;20037;-65
2022/09/11 05:46:29;;;;;;;11.18;9.95;;;12.40;99.90;;;;;;5051146;28;20479;-64
2022/09/11 05:48:55;;;;;;;12.13;9.45;;;12.40;99.90;;;;;;5051274;28;20048;-64
2022/09/11 05:51:21;;;;;;;9.82;8.82;;;12.40;99.90;;;;;;5048689;28;20399;-65
2022/09/11 05:53:50;;;;;;;9.65;8.65;;;12.50;99.90;;;;;;5049591;28;20108;-65
2022/09/11 05:56:19;;;;;;;10.25;8.60;;;12.50;99.90;;;;;;5048324;28;20048;-64
2022/09/11 05:58:47;;;;;;;9.60;8.70;;;12.50;99.90;;;;;;5051130;28;20392;-64
2022/09/11 06:01:15;;;;;;;9.40;8.45;;;12.40;99.90;;;;;;5049960;28;20064;-64
2022/09/11 06:03:41;;;;;;;8.95;8.05;;;12.50;99.90;;;;;;5048418;28;20042;-64
2022/09/11 06:06:09;;;;;;;9.43;8.52;;;12.70;99.90;;;;;;5049503;28;20124;-64
2022/09/11 06:08:35;;;;;;;9.68;8.68;;;12.70;99.90;;;;;;5035807;28;20048;-64
2022/09/11 06:11:05;;;;;;;9.57;8.68;;;12.80;99.90;;;;;;5050852;28;20120;-64
2022/09/11 06:13:33;;;;;;;9.65;8.77;;;12.80;99.90;;;;;;5047135;28;20040;-64
2022/09/11 06:15:59;;;;;;;12.25;10.60;;;13.00;99.90;;;;;;5052231;28;20041;-64
2022/09/11 06:18:25;;;;;;;9.85;8.82;;;13.20;99.90;;;;;;5056422;28;20043;-65
2022/09/11 06:20:58;;;;;;;9.85;8.95;;;13.50;99.90;;;;;;5056107;28;20044;-65
2022/09/11 06:23:24;;;;;;;9.52;8.63;;;13.40;99.90;;;;;;5056658;28;20037;-65
2022/09/11 06:25:53;;;;;;;10.00;9.10;;;14.10;99.90;;;;;;5056315;28;20040;-65
2022/09/11 06:28:22;;;;;;;8.90;8.00;;;14.60;99.90;;;;;;5056206;28;20491;-65
2022/09/11 06:30:51;;;;;;;8.48;7.68;;;15.30;99.90;;;;;;5055999;28;20094;-64
2022/09/11 06:33:19;;;;;;;8.38;7.45;;;15.40;99.90;;;;;;5053708;28;20036;-65
2022/09/11 06:36:02;;;;;;;9.38;7.85;;;15.50;99.90;;;;;;5052168;28;20064;-65
2022/09/11 06:38:30;;;;;;;9.48;8.45;;;15.70;99.90;;;;;;5055523;28;20461;-64
2022/09/11 06:40:56;;;;;;;9.77;8.88;;;15.40;99.90;;;;;;5054572;28;20055;-64
2022/09/11 06:43:21;;;;;;;10.40;8.68;;;15.50;99.90;;;;;;5056022;28;20483;-64
2022/09/11 06:45:47;;;;;;;9.43;8.52;;;15.50;99.90;;;;;;5055422;28;20086;-64
2022/09/11 06:48:14;;;;;;;11.95;9.30;;;15.30;99.90;;;;;;5054233;28;20075;-65
2022/09/11 06:50:40;;;;;;;11.93;10.15;;;15.10;99.90;;;;;;5053544;28;20068;-64
2022/09/11 06:53:07;;;;;;;11.55;10.38;;;15.10;99.90;;;;;;5049070;28;20452;-64
2022/09/11 06:55:33;;;;;;;13.25;10.75;;;15.00;99.90;;;;;;5054434;28;20452;-64
2022/09/11 06:57:59;;;;;;;12.32;11.02;;;;;;;;;;5054292;28;20044;-66
2022/09/11 07:00:25;;;;;;;15.52;12.30;;;14.90;99.90;;;;;;5054831;28;20037;-64
2022/09/11 07:02:55;;;;;;;13.93;11.60;;;14.90;99.90;;;;;;5054186;28;20045;-64
2022/09/11 07:05:21;;;;;;;12.93;11.65;;;15.10;99.90;;;;;;5055428;28;20513;-64
2022/09/11 07:07:49;;;;;;;14.98;12.25;;;15.10;99.90;;;;;;5056458;28;20033;-64
2022/09/11 07:10:15;;;;;;;15.90;11.70;;;15.10;99.90;;;;;;5049095;28;20116;-65
2022/09/11 07:12:41;;;;;;;15.27;12.07;;;15.20;99.90;;;;;;5052121;28;20528;-64
2022/09/11 07:15:07;;;;;;;14.00;12.23;;;15.30;99.90;;;;;;5054005;28;20041;-64
2022/09/11 07:17:33;;;;;;;17.05;13.27;;;15.30;99.90;;;;;;5047536;28;20072;-64
2022/09/11 07:19:59;;;;;;;14.98;13.38;;;15.20;99.90;;;;;;5052505;28;20056;-65
2022/09/11 07:22:25;;;;;;;16.60;13.70;;;15.40;99.90;;;;;;5053804;28;20048;-65
2022/09/11 07:24:53;;;;;;;18.48;14.98;;;15.50;99.90;;;;;;5053251;28;20032;-64
2022/09/11 07:27:18;;;;;;;17.50;14.23;;;15.40;99.90;;;;;;5054075;28;20028;-64
2022/09/11 07:29:44;;;;;;;15.20;12.52;;;15.50;99.90;;;;;;5053145;28;20052;-65
2022/09/11 07:32:10;;;;;;;17.35;13.90;;;15.60;99.90;;;;;;5050700;28;20402;-64
2022/09/11 07:34:35;;;;;;;16.60;14.90;;;15.90;99.90;;;;;;5053556;28;20399;-64
2022/09/11 07:37:01;;;;;;;16.75;14.95;;;16.00;99.90;;;;;;5070342;28;20037;-64
2022/09/11 07:39:27;;;;;;;18.58;14.77;;;16.70;99.90;;;;;;5053296;28;20071;-64
2022/09/11 07:41:52;;;;;;;19.73;15.18;;;17.00;99.90;;;;;;5053002;28;20045;-64
2022/09/11 07:44:19;;;;;;;18.05;14.65;;;17.20;99.90;;;;;;5054557;28;20037;-63
2022/09/11 07:46:45;;;;;;;19.40;16.00;;;17.20;99.90;;;;;;5051948;28;20071;-64
2022/09/11 07:49:10;;;;;;;19.45;15.40;;;17.40;99.90;;;;;;5053959;28;20487;-64
2022/09/11 07:51:36;;;;;;;18.75;13.88;;;17.20;99.90;;;;;;5053526;28;20052;-64
2022/09/11 07:54:02;;;;;;;17.23;14.35;;;17.30;99.90;;;;;;5053867;28;20040;-64
2022/09/11 07:56:28;;;;;;;17.63;14.35;;;17.20;99.90;;;;;;5054506;28;20128;-64
2022/09/11 07:58:54;;;;;;;15.73;14.02;;;17.40;99.90;;;;;;5053497;28;20040;-63
2022/09/11 08:01:26;;;;;;;16.25;13.85;;;17.40;99.90;;;;;;5052275;28;20052;-63
2022/09/11 08:04:00;;;;;;;17.17;14.23;;;17.60;99.90;;;;;;5054189;28;20041;-64
2022/09/11 08:06:28;;;;;;;16.80;13.15;;;17.50;99.90;;;;;;5056027;28;20390;-64
2022/09/11 08:08:56;;;;;;;12.32;10.85;;;17.30;99.90;;;;;;5055177;28;20483;-64
2022/09/11 08:11:22;;;;;;;16.10;12.02;;;17.60;99.90;;;;;;5054911;28;20090;-64
2022/09/11 08:13:49;;;;;;;13.43;11.57;;;17.60;99.90;;;;;;5053551;28;20049;-64
2022/09/11 08:16:16;;;;;;;13.85;10.65;;;17.60;99.90;;;;;;5054468;28;20060;-64
2022/09/11 08:18:42;;;;;;;13.00;10.68;;;17.70;99.90;;;;;;5053899;28;20514;-64
2022/09/11 08:21:09;;;;;;;12.90;9.68;;;17.80;99.90;;;;;;5054492;28;20111;-64
2022/09/11 08:23:37;;;;;;;13.90;11.82;;;17.80;99.90;;;;;;5053271;28;20043;-64
2022/09/11 08:26:09;;;;;;;16.77;10.75;;;17.90;99.90;;;;;;5054553;28;20048;-64
2022/09/11 08:28:36;;;;;;;13.65;11.15;;;17.90;99.90;;;;;;5053217;28;20483;-64
2022/09/11 08:31:02;;;;;;;11.57;9.43;;;18.00;99.90;;;;;;5054196;28;20095;-64
2022/09/11 08:33:28;;;;;;;11.15;9.30;;;18.10;99.90;;;;;;5054346;28;20051;-64
2022/09/11 08:35:56;;;;;;;13.02;8.20;;;18.20;99.90;;;;;;5054335;28;20033;-64
2022/09/11 08:38:21;;;;;;;11.98;7.93;;;18.30;99.90;;;;;;5052830;28;20044;-64
2022/09/11 08:40:47;;;;;;;11.95;8.93;;;18.40;99.90;;;;;;5051864;28;20049;-64
2022/09/11 08:43:21;;;;;;;11.57;8.00;;;18.50;99.90;;;;;;5052782;28;20080;-64
2022/09/11 08:45:50;;;;;;;15.18;8.52;;;18.70;99.90;;;;;;5054360;28;20037;-64
2022/09/11 08:48:17;;;;;;;10.07;8.00;;;18.80;99.90;;;;;;5054193;28;20041;-64
2022/09/11 08:50:43;;;;;;;10.25;7.35;;;18.80;99.90;;;;;;5054031;28;20570;-64
2022/09/11 08:53:15;;;;;;;9.57;8.20;;;18.70;99.90;;;;;;5052692;28;20131;-64
2022/09/11 08:55:51;;;;;;;12.20;6.90;;;18.60;99.90;;;;;;5053088;28;20106;-64
2022/09/11 08:58:26;;;;;;;9.63;6.95;;;18.50;99.90;;;;;;5052501;28;20106;-64
2022/09/11 09:01:13;;;;;;;9.23;6.03;;;18.30;99.90;;;;;;5053763;28;20437;-64
2022/09/11 09:04:00;;;;;;;8.32;5.78;;;18.70;99.90;;;;;;5052495;28;20081;-64
2022/09/11 09:06:47;;;;;;;9.82;6.15;;;18.80;99.90;;;;;;5056417;28;21358;-64
2022/09/11 09:09:31;;;;;;;12.88;9.20;;;18.90;99.90;;;;;;5039876;28;20044;-64
2022/09/11 09:12:19;;;;;;;10.38;7.15;;;19.10;99.90;;;;;;5052271;28;20056;-64
2022/09/11 09:15:17;;;;;;;9.88;7.10;;;19.20;99.90;;;;;;5053544;28;20121;-64
2022/09/11 09:17:55;;;;;;;10.63;6.63;;;19.20;99.90;;;;;;5046570;28;20040;-64
2022/09/11 09:20:28;;;;;;;8.90;6.78;;;19.50;99.90;;;;;;5052297;28;20053;-64
2022/09/11 09:22:59;;;;;;;8.70;6.20;;;19.70;99.90;;;;;;5035508;28;20048;-64
2022/09/11 09:25:25;;;;;;;8.32;5.55;;;19.50;99.90;;;;;;5053499;28;20395;-64
2022/09/11 09:28:02;;;;;;;11.02;6.82;;;19.80;99.90;;;;;;5053540;28;20032;-64
2022/09/11 09:30:35;;;;;;;11.15;6.95;;;19.80;99.90;;;;;;5052136;28;20239;-64
2022/09/11 09:33:14;;;;;;;10.13;6.00;;;19.90;99.90;;;;;;5051929;28;20415;-64
2022/09/11 09:35:42;;;;;;;7.68;6.03;;;20.20;99.90;;;;;;5053273;28;20045;-64
2022/09/11 09:38:18;;;;;;;8.55;5.57;;;20.60;99.90;;;;;;5052992;28;20102;-64
2022/09/11 09:40:55;;;;;;;5.60;3.30;;;20.70;99.90;;;;;;5053214;28;20115;-64
2022/09/11 09:43:37;;;;;;;7.38;3.45;;;20.60;99.90;;;;;;5051971;28;20070;-64
2022/09/11 09:46:31;;;;;;;6.03;3.63;;;20.90;99.90;;;;;;5051908;28;20130;-64
2022/09/11 09:48:56;;;;;;;6.45;3.17;;;21.20;99.90;;;;;;5052668;28;20053;-64
2022/09/11 09:51:22;;;;;;;5.18;3.20;;;21.50;99.90;;;;;;5052400;28;20047;-64
2022/09/11 09:53:59;;;;;;;5.38;2.95;;;21.50;99.90;;;;;;5051719;28;20048;-64
2022/09/11 09:56:25;;;;;;;4.95;2.55;;;21.50;99.90;;;;;;5052940;28;20491;-64
2022/09/11 09:59:17;;;;;;;5.10;2.72;;;21.30;99.90;;;;;;5038881;28;20025;-64
2022/09/11 10:01:50;;;;;;;5.03;2.65;;;21.70;99.90;;;;;;5051230;28;20072;-64
2022/09/11 10:04:26;;;;;;;7.93;3.28;;;22.20;99.90;;;;;;5053106;28;20133;-64
2022/09/11 10:07:03;;;;;;;5.70;2.58;;;21.90;99.90;;;;;;5053704;28;20040;-64
2022/09/11 10:09:29;;;;;;;7.82;2.72;;;22.00;99.90;;;;;;5052902;28;20146;-64
2022/09/11 10:12:04;;;;;;;5.90;2.10;;;22.20;99.90;;;;;;5052784;28;20079;-64
2022/09/11 10:14:44;;;;;;;7.82;2.33;;;22.10;99.90;;;;;;5034807;28;20094;-64
2022/09/11 10:17:30;;;;;;;4.95;2.25;;;22.10;99.90;;;;;;5052943;28;20048;-63
2022/09/11 10:20:22;;;;;;;5.13;2.53;;;22.10;99.90;;;;;;5040285;28;20120;-64
2022/09/11 10:22:49;;;;;;;3.55;2.28;;;22.00;99.90;;;;;;5052642;28;20040;-64
2022/09/11 10:25:26;;;;;;;5.57;2.28;;;22.00;99.90;;;;;;5052736;28;20094;-64
2022/09/11 10:28:04;;;;;;;3.00;1.85;;;22.00;99.90;;;;;;5051408;28;20059;-64
2022/09/11 10:30:39;;;;;;;5.35;1.80;;;21.90;99.90;;;;;;5052992;28;20123;-64
2022/09/11 10:33:17;;;;;;;7.20;2.50;;;21.80;99.90;;;;;;5051231;28;20090;-64
2022/09/11 10:35:50;;;;;;;4.45;1.80;;;21.90;99.90;;;;;;5052612;28;20047;-64
2022/09/11 10:38:18;;;;;;;5.03;1.45;;;21.80;99.90;;;;;;5051469;28;20037;-64
2022/09/11 10:41:04;;;;;;;5.03;1.70;;;21.90;99.90;;;;;;5052386;28;20056;-64
2022/09/11 10:44:04;;;;;;;2.47;1.27;;;21.70;99.90;;;;;;5051421;28;20049;-64
2022/09/11 10:46:36;;;;;;;5.38;1.75;;;21.80;99.90;;;;;;5052503;28;20048;-64
2022/09/11 10:49:04;;;;;;;4.65;1.45;;;21.80;99.90;;;;;;5052544;28;20040;-64
2022/09/11 10:51:33;;;;;;;6.28;2.05;;;21.50;99.90;;;;;;5032561;28;20045;-64
2022/09/11 10:54:29;;;;;;;4.45;1.60;;;21.90;99.90;;;;;;5052315;28;20072;-64
2022/09/11 10:57:23;;;;;;;4.15;1.52;;;21.70;99.90;;;;;;5052451;28;20108;-64
2022/09/11 10:59:54;;;;;;;6.95;2.30;;;21.70;99.90;;;;;;5051096;28;20088;-64
2022/09/11 11:02:33;;;;;;;5.13;2.03;;;21.80;99.90;;;;;;5037681;28;20102;-64
2022/09/11 11:05:30;;;;;;;6.80;1.92;;;21.30;99.90;;;;;;5055185;28;20540;-64
2022/09/11 11:08:29;;;;;;;3.85;1.50;;;20.90;99.90;;;;;;5055872;28;20045;-64
2022/09/11 11:11:13;;;;;;;4.68;1.75;;;21.40;99.90;;;;;;5043418;28;20033;-64
2022/09/11 11:14:03;;;;;;;3.10;1.58;;;21.20;99.90;;;;;;5055912;28;20075;-64
2022/09/11 11:16:32;;;;;;;6.22;1.55;;;21.30;99.90;;;;;;5041998;28;20049;-64
2022/09/11 11:19:07;;;;;;;3.30;1.30;;;21.30;99.90;;;;;;5054428;28;20048;-64
2022/09/11 11:22:14;;;;;;;4.40;2.53;;;21.20;99.90;;;;;;5054471;28;20181;-64
2022/09/11 11:24:58;;;;;;;3.58;1.05;;;21.50;99.90;;;;;;5055451;28;20060;-64
2022/09/11 11:27:36;;;;;;;4.05;0.85;;;21.30;99.90;;;;;;5054425;28;20045;-64
2022/09/11 11:30:19;;;;;;;4.97;1.25;;;21.30;99.90;;;;;;5054264;28;20044;-64
2022/09/11 11:33:00;;;;;;;2.90;1.08;;;21.40;99.90;;;;;;5055621;28;20041;-64
2022/09/11 11:35:34;;;;;;;4.68;1.10;;;21.50;99.90;;;;;;5055622;28;20099;-64
2022/09/11 11:38:15;;;;;;;3.28;1.08;;;21.70;99.90;;;;;;5036876;28;20098;-64
2022/09/11 11:40:53;;;;;;;3.80;1.20;;;21.50;99.90;;;;;;5060838;28;20045;-64
2022/09/11 11:43:22;;;;;;;4.00;1.90;;;21.40;99.90;;;;;;5053698;28;20122;-64
2022/09/11 11:46:14;;;;;;;2.38;1.20;;;21.50;99.90;;;;;;5052989;28;20387;-65
2022/09/11 11:48:45;;;;;;;5.40;1.20;;;21.50;99.90;;;;;;5054804;28;20040;-66
2022/09/11 11:51:17;;;;;;;2.17;1.15;;;21.50;99.90;;;;;;5054038;28;20400;-64
2022/09/11 11:54:00;;;;;;;2.85;0.95;;;21.50;99.90;;;;;;5054707;28;20495;-64
2022/09/11 11:56:40;;;;;;;2.80;1.13;;;21.40;99.90;;;;;;5055036;28;20446;-65
2022/09/11 11:59:10;;;;;;;3.90;0.88;;;21.40;99.90;;;;;;5053919;28;20068;-64
2022/09/11 12:01:47;;;;;;;2.35;0.77;;;21.40;99.90;;;;;;5036661;28;20053;-65
2022/09/11 12:04:31;;;;;;;3.60;1.02;;;21.50;99.90;;;;;;5053518;28;20047;-64
2022/09/11 12:06:58;;;;;;;2.65;1.02;;;21.40;99.90;;;;;;5055627;28;20055;-64
2022/09/11 12:09:26;;;;;;;1.70;1.00;;;21.60;99.90;;;;;;5053604;28;20037;-64
2022/09/11 12:11:54;;;;;;;2.33;0.80;;;21.20;99.90;;;;;;5054480;28;20052;-65
2022/09/11 12:14:25;;;;;;;4.55;1.08;;;21.40;99.90;;;;;;5054355;28;20079;-65
2022/09/11 12:16:51;;;;;;;4.47;1.67;;;21.60;99.90;;;;;;5053399;28;20076;-65
2022/09/11 12:19:21;;;;;;;2.55;0.95;;;21.80;99.90;;;;;;5054667;28;20045;-64
2022/09/11 12:21:53;;;;;;;4.05;1.05;;;21.50;99.90;;;;;;5053258;28;20064;-65
2022/09/11 12:24:23;;;;;;;3.38;0.90;;;22.90;99.90;;;;;;5052428;28;20496;-65
2022/09/11 12:27:27;;;;;;;2.85;0.80;;;21.80;99.90;;;;;;5042623;28;20521;-65
2022/09/11 12:30:08;;;;;;;1.73;0.50;;;21.80;99.90;;;;;;5053012;28;20036;-64
2022/09/11 12:32:44;;;;;;;4.10;0.77;;;21.50;99.90;;;;;;5054337;28;20554;-64
2022/09/11 12:35:40;;;;;;;3.13;0.75;;;22.00;99.90;;;;;;5054426;28;20371;-63
2022/09/11 12:38:07;;;;;;;4.03;1.10;;;21.80;99.90;;;;;;5052854;28;20517;-63
2022/09/11 12:40:56;;;;;;;3.30;0.95;;;21.80;99.90;;;;;;5053102;28;20178;-63
2022/09/11 12:43:34;;;;;;;3.00;0.73;;;21.90;99.90;;;;;;5052797;28;20403;-63
2022/09/11 12:46:01;;;;;;;2.80;0.70;;;21.80;99.90;;;;;;5054507;28;20033;-64
2022/09/11 12:48:37;;;;;;;2.63;0.65;;;21.70;99.90;;;;;;5052620;28;20580;-63
2022/09/11 12:51:04;;;;;;;1.88;0.80;;;22.10;99.90;;;;;;5052679;28;20049;-64
2022/09/11 12:53:36;;;;;;;5.20;0.80;;;21.80;99.90;;;;;;5053948;28;20490;-63
2022/09/11 12:56:05;;;;;;;1.88;0.73;;;21.90;99.90;;;;;;5054013;28;20045;-63
2022/09/11 12:58:33;;;;;;;1.95;0.73;;;22.20;99.90;;;;;;5052405;28;20095;-63
2022/09/11 13:01:13;;;;;;;3.13;0.90;;;21.80;99.90;;;;;;5052052;28;20059;-64